Sikinos — 9HA2865 — position and weather

sailwx.info

Track history (hours):
 
Tides and Currents Weather Stations Pressure Air Temp Water Temp Dewpoint Dewpoint Depression Visibility Wind Speed Wind Dir Waves Ship Positions

Sikinos

Last reported at 2016-Sep-01 03:33 UTC. Time now 2016-Sep-01 03:37 UTC.
Position N 51°21' E 003°12'.

Length 90 m; draft 5 m.

Type: Ship (hazmat cat A). MMSI: 256462000.

Date/timePositionNaut miles runAvg speedWind from/ knotsBaromVisibWave heightAir tempDewpointWater temp
2016-Sep-01 03:33N 51°21' E 003°12'0 0.0
2016-Sep-01 02:33N 51°21' E 003°12'0 0.0
2016-Sep-01 01:33N 51°21' E 003°12'0 0.0
2016-Sep-01 00:33N 51°21' E 003°12'0 0.0
2016-Aug-31 23:33N 51°21' E 003°12'0 0.0
2016-Aug-31 22:33N 51°21' E 003°12'0 0.0
2016-Aug-31 21:33N 51°21' E 003°12'0 0.0
2016-Aug-31 20:33N 51°21' E 003°12'0 0.0
2016-Aug-31 19:33N 51°21' E 003°12'0 0.0
2016-Aug-31 18:33N 51°21' E 003°12'0 0.0
2016-Aug-31 17:33N 51°21' E 003°12'0 0.0
2016-Aug-31 16:33N 51°21' E 003°12'0 0.0
2016-Aug-31 15:33N 51°21' E 003°12'6 6.3
2016-Aug-31 14:33N 51°22' E 003°02'1313.2
2016-Aug-31 13:33N 51°22' E 002°41'1313.4
2016-Aug-31 12:34N 51°19' E 002°20'1413.7
2016-Aug-31 11:33N 51°12' E 002°01'1413.9
2016-Aug-31 10:33N 51°04' E 001°43'1413.8
2016-Aug-31 09:33N 50°53' E 001°28'4912.1
2016-Aug-31 05:33N 50°24' E 000°27'1212.2
2016-Aug-31 04:33N 50°21' E 000°08'1111.0
2016-Aug-31 03:33N 50°23' W 000°09'1211.6
2016-Aug-31 02:33N 50°29' W 000°24'1111.4
2016-Aug-31 01:33N 50°34' W 000°40'1110.9
2016-Aug-31 00:33N 50°39' W 000°56'1010.6
2016-Aug-30 23:33N 50°46' W 001°09'1010.5
2016-Aug-30 22:33N 50°52' W 001°22'4 0.5
2016-Aug-30 13:33N 50°49' W 001°18'1010.4
2016-Aug-30 12:33N 50°44' W 001°03'1211.8
2016-Aug-30 11:34N 50°37' W 000°48'7 7.4
2016-Aug-30 10:34N 50°35' W 000°37'1312.6
2016-Aug-30 09:34N 50°31' W 000°18'1211.6
2016-Aug-30 08:34N 50°32' E 000°00'1111.0
2016-Aug-30 07:33N 50°35' E 000°17'1111.0
2016-Aug-30 06:34N 50°37' E 000°34'2713.0
2016-Aug-30 04:28N 50°51' E 001°11'1314.4
2016-Aug-30 03:34N 51°00' E 001°26'1010.1
2016-Aug-30 02:33N 51°02' E 001°42'1211.9
2016-Aug-30 01:33N 51°03' E 002°01'1212.1
2016-Aug-30 00:33N 51°04' E 002°20'1 0.9
2016-Aug-29 23:33N 51°03' E 002°19'0 0.0
2016-Aug-29 17:33N 51°03' E 002°20'0 0.4
2016-Aug-29 16:33N 51°03' E 002°20'7 6.7
2016-Aug-29 15:33N 51°03' E 002°10'1010.4
2016-Aug-29 14:33N 51°01' E 001°53'5 4.5
2016-Aug-29 13:33N 51°05' E 001°58'1211.9
2016-Aug-29 12:33N 51°10' E 002°15'1110.8
2016-Aug-29 11:33N 51°16' E 002°30'1110.5
2016-Aug-29 10:33N 51°22' E 002°43'1010.4
2016-Aug-29 09:33N 51°24' E 002°60'1010.5
2016-Aug-29 08:33N 51°25' E 003°16'1110.9
2016-Aug-29 07:33N 51°26' E 003°34'6 5.1
2016-Aug-29 06:29N 51°28' E 003°42'0 0.0
2016-Aug-29 05:29N 51°28' E 003°42'0 0.0
2016-Aug-29 04:29N 51°28' E 003°42'0 0.0
2016-Aug-29 03:29N 51°28' E 003°42'0 0.0
2016-Aug-29 02:29N 51°28' E 003°42'0 0.0
2016-Aug-29 01:29N 51°28' E 003°42'0 0.0
2016-Aug-29 00:32N 51°28' E 003°42'0 0.0
2016-Aug-28 23:32N 51°28' E 003°42'0 0.0
2016-Aug-28 22:32N 51°28' E 003°42'0 0.0
2016-Aug-28 21:32N 51°28' E 003°42'0 0.0
2016-Aug-28 20:26N 51°28' E 003°42'0 0.0
2016-Aug-28 19:32N 51°28' E 003°42'0 0.0
2016-Aug-28 18:32N 51°28' E 003°42'0 0.1
2016-Aug-28 17:33N 51°28' E 003°42'9 9.1
2016-Aug-28 16:33N 51°25' E 003°28'1211.6
2016-Aug-28 15:33N 51°24' E 003°09'1211.8
2016-Aug-28 14:33N 51°22' E 002°51'8 7.6
2016-Aug-28 13:33N 51°21' E 002°39'4 3.9
2016-Aug-28 12:33N 51°22' E 002°33'1212.2
2016-Aug-28 11:33N 51°17' E 002°14'1313.1
2016-Aug-28 10:33N 51°10' E 001°57'1313.4
2016-Aug-28 09:33N 51°01' E 001°41'2114.2
2016-Aug-28 08:06N 50°44' E 001°22'813.7
2016-Aug-28 07:30N 50°38' E 001°14'1313.8
2016-Aug-28 06:32N 50°29' E 000°60'3214.0
2016-Aug-28 04:14N 50°06' E 000°24'914.1
2016-Aug-28 03:33N 49°59' E 000°13'1313.1
2016-Aug-28 02:33N 49°48' E 000°02'9 8.7
2016-Aug-28 01:34N 49°39' E 000°05'2 1.4
2016-Aug-28 00:24N 49°40' E 000°08'0 0.0
2016-Aug-27 23:30N 49°40' E 000°08'0 0.0
2016-Aug-27 22:33N 49°40' E 000°08'0 0.0
2016-Aug-27 21:33N 49°40' E 000°08'0 0.0
2016-Aug-27 20:30N 49°40' E 000°08'0 0.0
2016-Aug-27 19:33N 49°40' E 000°08'0 0.0
2016-Aug-27 18:33N 49°40' E 000°08'0 0.0
2016-Aug-27 17:33N 49°40' E 000°08'0 0.0
2016-Aug-27 16:33N 49°40' E 000°08'0 0.0
2016-Aug-27 15:29N 49°40' E 000°08'0 0.0
2016-Aug-27 14:32N 49°40' E 000°08'0 0.0
2016-Aug-27 13:33N 49°40' E 000°08'0 0.0
2016-Aug-27 12:33N 49°40' E 000°08'0 0.0
2016-Aug-27 11:29N 49°40' E 000°08'0 0.0
2016-Aug-27 10:29N 49°40' E 000°08'3 2.8
2016-Aug-27 09:33N 49°41' E 000°04'1111.5
2016-Aug-27 08:33N 49°52' W 000°01'1212.1
2016-Aug-27 07:33N 50°04' W 000°03'1212.1
2016-Aug-27 06:33N 50°16' W 000°06'18 8.9
2016-Aug-27 04:33N 50°30' E 000°11'1111.3
2016-Aug-27 03:33N 50°34' E 000°28'1211.6
2016-Aug-27 02:33N 50°39' E 000°44'1312.8
2016-Aug-27 01:33N 50°46' E 001°01'1413.5
2016-Aug-27 00:33N 50°55' E 001°17'2613.2
2016-Aug-26 22:33N 51°14' E 001°46'1211.7
2016-Aug-26 21:33N 51°23' E 001°58'1010.4
2016-Aug-26 20:33N 51°21' E 002°14'1110.8
2016-Aug-26 19:33N 51°23' E 002°31'1110.5
2016-Aug-26 18:33N 51°22' E 002°48'1111.1
2016-Aug-26 17:34N 51°22' E 003°06'4 3.9
2016-Aug-26 16:31N 51°21' E 003°12'0 0.0
2016-Aug-26 15:31N 51°21' E 003°12'0 0.0
2016-Aug-26 14:31N 51°21' E 003°12'0 0.0
2016-Aug-26 13:31N 51°21' E 003°12'0 0.0
2016-Aug-26 12:31N 51°21' E 003°12'0 0.0
2016-Aug-26 11:31N 51°21' E 003°12'0 0.0
2016-Aug-26 10:31N 51°21' E 003°12'0 0.0
2016-Aug-26 09:31N 51°21' E 003°12'0 0.0
2016-Aug-26 08:31N 51°21' E 003°12'0 0.0
2016-Aug-26 07:31N 51°21' E 003°12'0 0.0
2016-Aug-26 06:31N 51°21' E 003°12'0 0.0
2016-Aug-26 04:31N 51°21' E 003°12'3 2.7
2016-Aug-26 03:33N 51°22' E 003°08'1212.0
2016-Aug-26 02:33N 51°21' E 002°49'1010.4
2016-Aug-26 01:33N 51°22' E 002°32'1010.2
2016-Aug-26 00:33N 51°18' E 002°17'1110.8
2016-Aug-25 23:33N 51°12' E 002°03'1110.9
2016-Aug-25 22:33N 51°06' E 001°48'8 7.9
2016-Aug-25 21:33N 51°02' E 001°59'1212.3
2016-Aug-25 20:33N 51°04' E 002°19'1 0.9
2016-Aug-25 19:33N 51°03' E 002°19'0 0.1
2016-Aug-25 18:33N 51°03' E 002°19'0 0.0
2016-Aug-25 17:30N 51°03' E 002°19'0 0.0
2016-Aug-25 16:33N 51°03' E 002°19'0 0.0
2016-Aug-25 15:15N 51°03' E 002°19'0 0.0
2016-Aug-25 14:30N 51°03' E 002°19'0 0.0
2016-Aug-25 12:18N 51°03' E 002°19'0 0.0
2016-Aug-25 10:33N 51°03' E 002°19'0 0.1
2016-Aug-25 07:21N 51°03' E 002°20'0 0.0
2016-Aug-25 04:30N 51°03' E 002°20'0 0.0
2016-Aug-25 03:33N 51°03' E 002°20'0 0.0
2016-Aug-25 02:27N 51°03' E 002°20'0 0.0
2016-Aug-25 01:33N 51°03' E 002°20'0 0.0
2016-Aug-25 00:33N 51°03' E 002°20'0 0.0
2016-Aug-24 21:33N 51°03' E 002°20'0 0.0
2016-Aug-24 20:33N 51°03' E 002°20'0 0.0
2016-Aug-24 19:18N 51°03' E 002°20'0 0.0
2016-Aug-24 03:21N 51°03' E 002°20'1 1.4
2016-Aug-24 02:33N 51°03' E 002°21'1212.3
2016-Aug-24 01:33N 51°03' E 002°02'9 9.5
2016-Aug-24 00:34N 51°02' E 001°47'8 7.7
2016-Aug-23 23:34N 51°08' E 001°39'1414.0
2016-Aug-23 22:34N 51°19' E 001°54'1010.3
2016-Aug-23 21:33N 51°22' E 002°09'1212.3
2016-Aug-23 20:33N 51°22' E 002°29'1211.8
2016-Aug-23 19:33N 51°22' E 002°48'1212.2
2016-Aug-23 18:33N 51°22' E 003°07'4 3.5
2016-Aug-23 17:31N 51°20' E 003°12'0 0.0
2016-Aug-23 16:31N 51°20' E 003°12'0 0.0
2016-Aug-23 15:31N 51°20' E 003°12'0 0.0
2016-Aug-23 14:28N 51°20' E 003°12'0 0.0
2016-Aug-23 13:31N 51°20' E 003°12'0 0.0
2016-Aug-23 12:31N 51°20' E 003°12'0 0.0
2016-Aug-23 11:31N 51°20' E 003°12'0 0.0
2016-Aug-23 10:31N 51°20' E 003°12'0 0.0
2016-Aug-23 09:31N 51°20' E 003°12'0 0.0
2016-Aug-23 08:31N 51°20' E 003°12'0 0.0
2016-Aug-23 07:31N 51°20' E 003°12'0 0.0
2016-Aug-23 06:31N 51°20' E 003°12'0 0.0
2016-Aug-23 05:31N 51°20' E 003°12'0 0.0
2016-Aug-23 04:31N 51°20' E 003°12'0 0.0
2016-Aug-23 03:31N 51°20' E 003°12'0 0.0
2016-Aug-23 02:31N 51°20' E 003°12'0 0.0
2016-Aug-23 01:31N 51°20' E 003°12'1 1.3
2016-Aug-23 00:34N 51°21' E 003°12'1010.4
2016-Aug-22 23:33N 51°21' E 002°56'1010.2
2016-Aug-22 22:33N 51°22' E 002°39'1010.3
2016-Aug-22 21:33N 51°20' E 002°23'1110.7
2016-Aug-22 20:33N 51°14' E 002°08'1212.1
2016-Aug-22 19:34N 51°08' E 001°52'1212.1
2016-Aug-22 18:33N 51°00' E 001°37'1313.4
2016-Aug-22 17:33N 50°49' E 001°25'1313.2
2016-Aug-22 16:33N 50°38' E 001°13'2912.9
2016-Aug-22 14:16N 50°25' E 000°32'1213.4
2016-Aug-22 13:23N 50°22' E 000°14'1214.2
2016-Aug-22 12:33N 50°19' W 000°04'1615.4
2016-Aug-22 11:30N 50°15' W 000°29'1715.8
2016-Aug-22 10:24N 50°15' W 000°56'1416.2
2016-Aug-22 09:33N 50°19' W 001°16'1715.6
2016-Aug-22 08:29N 50°24' W 001°41'1414.0
2016-Aug-22 07:28N 50°29' W 002°03'1212.6
2016-Aug-22 06:32N 50°34' W 002°19'5 4.7
2016-Aug-22 05:33N 50°35' W 002°26'  
Track history (hours):
 
Tides and Currents Weather Stations Pressure Air Temp Water Temp Dewpoint Dewpoint Depression Visibility Wind Speed Wind Dir Waves Ship Positions

Sikinos

Last reported at 2016-Sep-01 03:33 UTC. Time now 2016-Sep-01 03:37 UTC.
Position N 51°21' E 003°12'.

Length 90 m; draft 5 m.

Type: Ship (hazmat cat A). MMSI: 256462000.

Date/timePositionNaut miles runAvg speedWind from/ knotsBaromVisibWave heightAir tempDewpointWater temp
2016-Sep-01 03:33N 51°21' E 003°12'0 0.0
2016-Sep-01 02:33N 51°21' E 003°12'0 0.0
2016-Sep-01 01:33N 51°21' E 003°12'0 0.0
2016-Sep-01 00:33N 51°21' E 003°12'0 0.0
2016-Aug-31 23:33N 51°21' E 003°12'0 0.0
2016-Aug-31 22:33N 51°21' E 003°12'0 0.0
2016-Aug-31 21:33N 51°21' E 003°12'0 0.0
2016-Aug-31 20:33N 51°21' E 003°12'0 0.0
2016-Aug-31 19:33N 51°21' E 003°12'0 0.0
2016-Aug-31 18:33N 51°21' E 003°12'0 0.0
2016-Aug-31 17:33N 51°21' E 003°12'0 0.0
2016-Aug-31 16:33N 51°21' E 003°12'0 0.0
2016-Aug-31 15:33N 51°21' E 003°12'6 6.3
2016-Aug-31 14:33N 51°22' E 003°02'1313.2
2016-Aug-31 13:33N 51°22' E 002°41'1313.4
2016-Aug-31 12:34N 51°19' E 002°20'1413.7
2016-Aug-31 11:33N 51°12' E 002°01'1413.9
2016-Aug-31 10:33N 51°04' E 001°43'1413.8
2016-Aug-31 09:33N 50°53' E 001°28'4912.1
2016-Aug-31 05:33N 50°24' E 000°27'1212.2
2016-Aug-31 04:33N 50°21' E 000°08'1111.0
2016-Aug-31 03:33N 50°23' W 000°09'1211.6
2016-Aug-31 02:33N 50°29' W 000°24'1111.4
2016-Aug-31 01:33N 50°34' W 000°40'1110.9
2016-Aug-31 00:33N 50°39' W 000°56'1010.6
2016-Aug-30 23:33N 50°46' W 001°09'1010.5
2016-Aug-30 22:33N 50°52' W 001°22'4 0.5
2016-Aug-30 13:33N 50°49' W 001°18'1010.4
2016-Aug-30 12:33N 50°44' W 001°03'1211.8
2016-Aug-30 11:34N 50°37' W 000°48'7 7.4
2016-Aug-30 10:34N 50°35' W 000°37'1312.6
2016-Aug-30 09:34N 50°31' W 000°18'1211.6
2016-Aug-30 08:34N 50°32' E 000°00'1111.0
2016-Aug-30 07:33N 50°35' E 000°17'1111.0
2016-Aug-30 06:34N 50°37' E 000°34'2713.0
2016-Aug-30 04:28N 50°51' E 001°11'1314.4
2016-Aug-30 03:34N 51°00' E 001°26'1010.1
2016-Aug-30 02:33N 51°02' E 001°42'1211.9
2016-Aug-30 01:33N 51°03' E 002°01'1212.1
2016-Aug-30 00:33N 51°04' E 002°20'1 0.9
2016-Aug-29 23:33N 51°03' E 002°19'0 0.0
2016-Aug-29 17:33N 51°03' E 002°20'0 0.4
2016-Aug-29 16:33N 51°03' E 002°20'7 6.7
2016-Aug-29 15:33N 51°03' E 002°10'1010.4
2016-Aug-29 14:33N 51°01' E 001°53'5 4.5
2016-Aug-29 13:33N 51°05' E 001°58'1211.9
2016-Aug-29 12:33N 51°10' E 002°15'1110.8
2016-Aug-29 11:33N 51°16' E 002°30'1110.5
2016-Aug-29 10:33N 51°22' E 002°43'1010.4
2016-Aug-29 09:33N 51°24' E 002°60'1010.5
2016-Aug-29 08:33N 51°25' E 003°16'1110.9
2016-Aug-29 07:33N 51°26' E 003°34'6 5.1
2016-Aug-29 06:29N 51°28' E 003°42'0 0.0
2016-Aug-29 05:29N 51°28' E 003°42'0 0.0
2016-Aug-29 04:29N 51°28' E 003°42'0 0.0
2016-Aug-29 03:29N 51°28' E 003°42'0 0.0
2016-Aug-29 02:29N 51°28' E 003°42'0 0.0
2016-Aug-29 01:29N 51°28' E 003°42'0 0.0
2016-Aug-29 00:32N 51°28' E 003°42'0 0.0
2016-Aug-28 23:32N 51°28' E 003°42'0 0.0
2016-Aug-28 22:32N 51°28' E 003°42'0 0.0
2016-Aug-28 21:32N 51°28' E 003°42'0 0.0
2016-Aug-28 20:26N 51°28' E 003°42'0 0.0
2016-Aug-28 19:32N 51°28' E 003°42'0 0.0
2016-Aug-28 18:32N 51°28' E 003°42'0 0.1
2016-Aug-28 17:33N 51°28' E 003°42'9 9.1
2016-Aug-28 16:33N 51°25' E 003°28'1211.6
2016-Aug-28 15:33N 51°24' E 003°09'1211.8
2016-Aug-28 14:33N 51°22' E 002°51'8 7.6
2016-Aug-28 13:33N 51°21' E 002°39'4 3.9
2016-Aug-28 12:33N 51°22' E 002°33'1212.2
2016-Aug-28 11:33N 51°17' E 002°14'1313.1
2016-Aug-28 10:33N 51°10' E 001°57'1313.4
2016-Aug-28 09:33N 51°01' E 001°41'2114.2
2016-Aug-28 08:06N 50°44' E 001°22'813.7
2016-Aug-28 07:30N 50°38' E 001°14'1313.8
2016-Aug-28 06:32N 50°29' E 000°60'3214.0
2016-Aug-28 04:14N 50°06' E 000°24'914.1
2016-Aug-28 03:33N 49°59' E 000°13'1313.1
2016-Aug-28 02:33N 49°48' E 000°02'9 8.7
2016-Aug-28 01:34N 49°39' E 000°05'2 1.4
2016-Aug-28 00:24N 49°40' E 000°08'0 0.0
2016-Aug-27 23:30N 49°40' E 000°08'0 0.0
2016-Aug-27 22:33N 49°40' E 000°08'0 0.0
2016-Aug-27 21:33N 49°40' E 000°08'0 0.0
2016-Aug-27 20:30N 49°40' E 000°08'0 0.0
2016-Aug-27 19:33N 49°40' E 000°08'0 0.0
2016-Aug-27 18:33N 49°40' E 000°08'0 0.0
2016-Aug-27 17:33N 49°40' E 000°08'0 0.0
2016-Aug-27 16:33N 49°40' E 000°08'0 0.0
2016-Aug-27 15:29N 49°40' E 000°08'0 0.0
2016-Aug-27 14:32N 49°40' E 000°08'0 0.0
2016-Aug-27 13:33N 49°40' E 000°08'0 0.0
2016-Aug-27 12:33N 49°40' E 000°08'0 0.0
2016-Aug-27 11:29N 49°40' E 000°08'0 0.0
2016-Aug-27 10:29N 49°40' E 000°08'3 2.8
2016-Aug-27 09:33N 49°41' E 000°04'1111.5
2016-Aug-27 08:33N 49°52' W 000°01'1212.1
2016-Aug-27 07:33N 50°04' W 000°03'1212.1
2016-Aug-27 06:33N 50°16' W 000°06'18 8.9
2016-Aug-27 04:33N 50°30' E 000°11'1111.3
2016-Aug-27 03:33N 50°34' E 000°28'1211.6
2016-Aug-27 02:33N 50°39' E 000°44'1312.8
2016-Aug-27 01:33N 50°46' E 001°01'1413.5
2016-Aug-27 00:33N 50°55' E 001°17'2613.2
2016-Aug-26 22:33N 51°14' E 001°46'1211.7
2016-Aug-26 21:33N 51°23' E 001°58'1010.4
2016-Aug-26 20:33N 51°21' E 002°14'1110.8
2016-Aug-26 19:33N 51°23' E 002°31'1110.5
2016-Aug-26 18:33N 51°22' E 002°48'1111.1
2016-Aug-26 17:34N 51°22' E 003°06'4 3.9
2016-Aug-26 16:31N 51°21' E 003°12'0 0.0
2016-Aug-26 15:31N 51°21' E 003°12'0 0.0
2016-Aug-26 14:31N 51°21' E 003°12'0 0.0
2016-Aug-26 13:31N 51°21' E 003°12'0 0.0
2016-Aug-26 12:31N 51°21' E 003°12'0 0.0
2016-Aug-26 11:31N 51°21' E 003°12'0 0.0
2016-Aug-26 10:31N 51°21' E 003°12'0 0.0
2016-Aug-26 09:31N 51°21' E 003°12'0 0.0
2016-Aug-26 08:31N 51°21' E 003°12'0 0.0
2016-Aug-26 07:31N 51°21' E 003°12'0 0.0
2016-Aug-26 06:31N 51°21' E 003°12'0 0.0
2016-Aug-26 04:31N 51°21' E 003°12'3 2.7
2016-Aug-26 03:33N 51°22' E 003°08'1212.0
2016-Aug-26 02:33N 51°21' E 002°49'1010.4
2016-Aug-26 01:33N 51°22' E 002°32'1010.2
2016-Aug-26 00:33N 51°18' E 002°17'1110.8
2016-Aug-25 23:33N 51°12' E 002°03'1110.9
2016-Aug-25 22:33N 51°06' E 001°48'8 7.9
2016-Aug-25 21:33N 51°02' E 001°59'1212.3
2016-Aug-25 20:33N 51°04' E 002°19'1 0.9
2016-Aug-25 19:33N 51°03' E 002°19'0 0.1
2016-Aug-25 18:33N 51°03' E 002°19'0 0.0
2016-Aug-25 17:30N 51°03' E 002°19'0 0.0
2016-Aug-25 16:33N 51°03' E 002°19'0 0.0
2016-Aug-25 15:15N 51°03' E 002°19'0 0.0
2016-Aug-25 14:30N 51°03' E 002°19'0 0.0
2016-Aug-25 12:18N 51°03' E 002°19'0 0.0
2016-Aug-25 10:33N 51°03' E 002°19'0 0.1
2016-Aug-25 07:21N 51°03' E 002°20'0 0.0
2016-Aug-25 04:30N 51°03' E 002°20'0 0.0
2016-Aug-25 03:33N 51°03' E 002°20'0 0.0
2016-Aug-25 02:27N 51°03' E 002°20'0 0.0
2016-Aug-25 01:33N 51°03' E 002°20'0 0.0
2016-Aug-25 00:33N 51°03' E 002°20'0 0.0
2016-Aug-24 21:33N 51°03' E 002°20'0 0.0
2016-Aug-24 20:33N 51°03' E 002°20'0 0.0
2016-Aug-24 19:18N 51°03' E 002°20'0 0.0
2016-Aug-24 03:21N 51°03' E 002°20'1 1.4
2016-Aug-24 02:33N 51°03' E 002°21'1212.3
2016-Aug-24 01:33N 51°03' E 002°02'9 9.5
2016-Aug-24 00:34N 51°02' E 001°47'8 7.7
2016-Aug-23 23:34N 51°08' E 001°39'1414.0
2016-Aug-23 22:34N 51°19' E 001°54'1010.3
2016-Aug-23 21:33N 51°22' E 002°09'1212.3
2016-Aug-23 20:33N 51°22' E 002°29'1211.8
2016-Aug-23 19:33N 51°22' E 002°48'1212.2
2016-Aug-23 18:33N 51°22' E 003°07'4 3.5
2016-Aug-23 17:31N 51°20' E 003°12'0 0.0
2016-Aug-23 16:31N 51°20' E 003°12'0 0.0
2016-Aug-23 15:31N 51°20' E 003°12'0 0.0
2016-Aug-23 14:28N 51°20' E 003°12'0 0.0
2016-Aug-23 13:31N 51°20' E 003°12'0 0.0
2016-Aug-23 12:31N 51°20' E 003°12'0 0.0
2016-Aug-23 11:31N 51°20' E 003°12'0 0.0
2016-Aug-23 10:31N 51°20' E 003°12'0 0.0
2016-Aug-23 09:31N 51°20' E 003°12'0 0.0
2016-Aug-23 08:31N 51°20' E 003°12'0 0.0
2016-Aug-23 07:31N 51°20' E 003°12'0 0.0
2016-Aug-23 06:31N 51°20' E 003°12'0 0.0
2016-Aug-23 05:31N 51°20' E 003°12'0 0.0
2016-Aug-23 04:31N 51°20' E 003°12'0 0.0
2016-Aug-23 03:31N 51°20' E 003°12'0 0.0
2016-Aug-23 02:31N 51°20' E 003°12'0 0.0
2016-Aug-23 01:31N 51°20' E 003°12'1 1.3
2016-Aug-23 00:34N 51°21' E 003°12'1010.4
2016-Aug-22 23:33N 51°21' E 002°56'1010.2
2016-Aug-22 22:33N 51°22' E 002°39'1010.3
2016-Aug-22 21:33N 51°20' E 002°23'1110.7
2016-Aug-22 20:33N 51°14' E 002°08'1212.1
2016-Aug-22 19:34N 51°08' E 001°52'1212.1
2016-Aug-22 18:33N 51°00' E 001°37'1313.4
2016-Aug-22 17:33N 50°49' E 001°25'1313.2
2016-Aug-22 16:33N 50°38' E 001°13'2912.9
2016-Aug-22 14:16N 50°25' E 000°32'1213.4
2016-Aug-22 13:23N 50°22' E 000°14'1214.2
2016-Aug-22 12:33N 50°19' W 000°04'1615.4
2016-Aug-22 11:30N 50°15' W 000°29'1715.8
2016-Aug-22 10:24N 50°15' W 000°56'1416.2
2016-Aug-22 09:33N 50°19' W 001°16'1715.6
2016-Aug-22 08:29N 50°24' W 001°41'1414.0
2016-Aug-22 07:28N 50°29' W 002°03'1212.6
2016-Aug-22 06:32N 50°34' W 002°19'5 4.7
2016-Aug-22 05:33N 50°35' W 002°26'  

Dump ship's entire track history